KDVT/DVT METAR and TAF weather

Enter ICAO airport designator
Station Type Date Time Source
KDVT METAR 2022/01/25 04:53 UTC NOAA

KDVT 250453Z AUTO 00000KT 10SM CLR 08/03 A2996 RMK AO2 SLP140 T00830033


Station Type Date Time Source
KDVT Decoded METAR 2022/01/25 04:53 UTC NOAA

PHOENIX-DEER VALLEY MUN, AZ, United States (KDVT) 33-41N 112-04W 443M
Jan 24, 2022 - 11:53 PM EST / 2022.01.25 0453 UTC
Wind: Calm:0
Visibility: 10 mile(s):0
Sky conditions: clear
Temperature: 46.9 F (8.3 C)
Dew Point: 37.9 F (3.3 C)
Relative Humidity: 70%
Pressure (altimeter): 29.96 in. Hg (1014 hPa)
ob: KDVT 250453Z AUTO 00000KT 10SM CLR 08/03 A2996 RMK AO2 SLP140 T00830033
cycle: 5

Station Type Date Time Source
KDVT TAF 2022/01/24 18:24 UTC NOAA

TAF KDVT 241721Z 2418/2518 VRB03KT P6SM SKC
FM242100 23005KT P6SM SKC
FM250300 06004KT P6SM SKC

Example: see airport list